sensor_id;sensor_type;location;lat;lon;timestamp;P1;durP1;ratioP1;P2;durP2;ratioP2
8353;SDS011;4656;48.090;11.498;2023-06-22T00:01:30;6.30;;;3.25;;
8353;SDS011;4656;48.090;11.498;2023-06-22T00:03:32;7.45;;;3.33;;
8353;SDS011;4656;48.090;11.498;2023-06-22T00:05:34;6.13;;;3.30;;
8353;SDS011;4656;48.090;11.498;2023-06-22T00:07:37;6.47;;;3.50;;
8353;SDS011;4656;48.090;11.498;2023-06-22T00:09:39;7.07;;;3.30;;
8353;SDS011;4656;48.090;11.498;2023-06-22T00:11:41;6.05;;;3.22;;
8353;SDS011;4656;48.090;11.498;2023-06-22T00:13:44;5.20;;;3.05;;
8353;SDS011;4656;48.090;11.498;2023-06-22T00:15:47;8.38;;;3.72;;
8353;SDS011;4656;48.090;11.498;2023-06-22T00:17:49;6.00;;;3.55;;
8353;SDS011;4656;48.090;11.498;2023-06-22T00:19:51;6.13;;;3.40;;
8353;SDS011;4656;48.090;11.498;2023-06-22T00:21:55;8.82;;;3.15;;
8353;SDS011;4656;48.090;11.498;2023-06-22T00:24:01;6.13;;;3.30;;
8353;SDS011;4656;48.090;11.498;2023-06-22T00:26:03;7.13;;;3.17;;
8353;SDS011;4656;48.090;11.498;2023-06-22T00:28:06;6.38;;;3.47;;
8353;SDS011;4656;48.090;11.498;2023-06-22T00:30:09;6.30;;;3.30;;
8353;SDS011;4656;48.090;11.498;2023-06-22T00:32:11;8.75;;;3.03;;
8353;SDS011;4656;48.090;11.498;2023-06-22T00:34:13;6.83;;;3.40;;
8353;SDS011;4656;48.090;11.498;2023-06-22T00:36:16;5.70;;;2.80;;
8353;SDS011;4656;48.090;11.498;2023-06-22T00:38:19;6.63;;;3.30;;
8353;SDS011;4656;48.090;11.498;2023-06-22T00:40:22;6.47;;;3.30;;
8353;SDS011;4656;48.090;11.498;2023-06-22T00:42:24;7.22;;;3.40;;
8353;SDS011;4656;48.090;11.498;2023-06-22T00:44:27;7.55;;;3.08;;
8353;SDS011;4656;48.090;11.498;2023-06-22T00:46:29;7.72;;;3.60;;
8353;SDS011;4656;48.090;11.498;2023-06-22T00:48:31;7.55;;;3.53;;
8353;SDS011;4656;48.090;11.498;2023-06-22T00:50:33;8.55;;;3.60;;
8353;SDS011;4656;48.090;11.498;2023-06-22T00:52:36;7.38;;;3.60;;
8353;SDS011;4656;48.090;11.498;2023-06-22T00:54:46;7.30;;;3.58;;
8353;SDS011;4656;48.090;11.498;2023-06-22T00:56:50;8.57;;;3.78;;
8353;SDS011;4656;48.090;11.498;2023-06-22T00:58:55;7.18;;;3.47;;
8353;SDS011;4656;48.090;11.498;2023-06-22T01:00:57;9.38;;;3.67;;
8353;SDS011;4656;48.090;11.498;2023-06-22T01:02:59;11.20;;;3.73;;
8353;SDS011;4656;48.090;11.498;2023-06-22T01:05:01;7.85;;;3.70;;
8353;SDS011;4656;48.090;11.498;2023-06-22T01:07:07;10.77;;;3.75;;
8353;SDS011;4656;48.090;11.498;2023-06-22T01:09:14;8.23;;;3.58;;
8353;SDS011;4656;48.090;11.498;2023-06-22T01:11:18;6.78;;;3.55;;
8353;SDS011;4656;48.090;11.498;2023-06-22T01:13:26;9.15;;;4.00;;
8353;SDS011;4656;48.090;11.498;2023-06-22T01:15:30;6.38;;;3.60;;
8353;SDS011;4656;48.090;11.498;2023-06-22T01:17:34;9.57;;;3.80;;
8353;SDS011;4656;48.090;11.498;2023-06-22T01:19:38;7.03;;;3.22;;
8353;SDS011;4656;48.090;11.498;2023-06-22T01:21:41;9.15;;;3.80;;
8353;SDS011;4656;48.090;11.498;2023-06-22T01:23:53;9.13;;;3.72;;
8353;SDS011;4656;48.090;11.498;2023-06-22T01:26:02;6.60;;;3.60;;
8353;SDS011;4656;48.090;11.498;2023-06-22T01:28:10;6.25;;;3.60;;
8353;SDS011;4656;48.090;11.498;2023-06-22T01:30:17;6.78;;;3.40;;
8353;SDS011;4656;48.090;11.498;2023-06-22T01:32:20;8.40;;;4.50;;
8353;SDS011;4656;48.090;11.498;2023-06-22T01:34:23;8.68;;;3.80;;
8353;SDS011;4656;48.090;11.498;2023-06-22T01:36:25;7.38;;;3.70;;
8353;SDS011;4656;48.090;11.498;2023-06-22T01:38:28;6.45;;;3.80;;
8353;SDS011;4656;48.090;11.498;2023-06-22T01:40:30;7.60;;;3.88;;
8353;SDS011;4656;48.090;11.498;2023-06-22T01:42:32;7.53;;;3.67;;
8353;SDS011;4656;48.090;11.498;2023-06-22T01:44:35;8.45;;;3.85;;
8353;SDS011;4656;48.090;11.498;2023-06-22T01:46:39;8.25;;;3.75;;
8353;SDS011;4656;48.090;11.498;2023-06-22T01:48:42;8.00;;;3.80;;
8353;SDS011;4656;48.090;11.498;2023-06-22T01:50:45;6.13;;;3.80;;
8353;SDS011;4656;48.090;11.498;2023-06-22T01:52:47;8.40;;;3.85;;
8353;SDS011;4656;48.090;11.498;2023-06-22T01:54:49;8.70;;;3.47;;
8353;SDS011;4656;48.090;11.498;2023-06-22T01:56:51;13.65;;;4.50;;
8353;SDS011;4656;48.090;11.498;2023-06-22T01:58:55;8.63;;;3.47;;
8353;SDS011;4656;48.090;11.498;2023-06-22T02:01:00;8.68;;;3.65;;
8353;SDS011;4656;48.090;11.498;2023-06-22T02:03:08;10.63;;;3.97;;
8353;SDS011;4656;48.090;11.498;2023-06-22T02:05:11;8.32;;;4.15;;
8353;SDS011;4656;48.090;11.498;2023-06-22T02:07:14;9.30;;;4.05;;
8353;SDS011;4656;48.090;11.498;2023-06-22T02:09:17;11.20;;;4.07;;
8353;SDS011;4656;48.090;11.498;2023-06-22T02:11:22;10.68;;;4.45;;
8353;SDS011;4656;48.090;11.498;2023-06-22T02:13:24;6.20;;;4.03;;
8353;SDS011;4656;48.090;11.498;2023-06-22T02:15:26;13.13;;;4.20;;
8353;SDS011;4656;48.090;11.498;2023-06-22T02:17:29;7.57;;;4.18;;
8353;SDS011;4656;48.090;11.498;2023-06-22T02:19:36;9.35;;;3.85;;
8353;SDS011;4656;48.090;11.498;2023-06-22T02:21:39;10.43;;;4.45;;
8353;SDS011;4656;48.090;11.498;2023-06-22T02:23:41;7.53;;;4.18;;
8353;SDS011;4656;48.090;11.498;2023-06-22T02:25:43;7.80;;;3.83;;
8353;SDS011;4656;48.090;11.498;2023-06-22T02:27:45;7.57;;;3.93;;
8353;SDS011;4656;48.090;11.498;2023-06-22T02:29:47;6.50;;;3.90;;
8353;SDS011;4656;48.090;11.498;2023-06-22T02:31:49;7.97;;;4.28;;
8353;SDS011;4656;48.090;11.498;2023-06-22T02:33:51;6.43;;;4.20;;
8353;SDS011;4656;48.090;11.498;2023-06-22T02:35:55;9.20;;;4.53;;
8353;SDS011;4656;48.090;11.498;2023-06-22T02:37:57;8.82;;;4.43;;
8353;SDS011;4656;48.090;11.498;2023-06-22T02:40:00;8.77;;;4.43;;
8353;SDS011;4656;48.090;11.498;2023-06-22T02:42:03;7.78;;;3.75;;
8353;SDS011;4656;48.090;11.498;2023-06-22T02:44:05;6.70;;;4.28;;
8353;SDS011;4656;48.090;11.498;2023-06-22T02:46:08;7.18;;;3.92;;
8353;SDS011;4656;48.090;11.498;2023-06-22T02:48:10;8.43;;;4.43;;
8353;SDS011;4656;48.090;11.498;2023-06-22T02:50:12;8.82;;;4.93;;
8353;SDS011;4656;48.090;11.498;2023-06-22T02:52:16;8.82;;;4.55;;
8353;SDS011;4656;48.090;11.498;2023-06-22T02:54:18;10.48;;;4.45;;
8353;SDS011;4656;48.090;11.498;2023-06-22T02:56:20;7.95;;;4.30;;
8353;SDS011;4656;48.090;11.498;2023-06-22T02:58:25;8.88;;;4.82;;
8353;SDS011;4656;48.090;11.498;2023-06-22T03:00:27;8.48;;;4.00;;
8353;SDS011;4656;48.090;11.498;2023-06-22T03:02:30;9.57;;;4.43;;
8353;SDS011;4656;48.090;11.498;2023-06-22T03:04:33;7.68;;;4.63;;
8353;SDS011;4656;48.090;11.498;2023-06-22T03:06:35;9.60;;;4.45;;
8353;SDS011;4656;48.090;11.498;2023-06-22T03:08:42;9.25;;;4.72;;
8353;SDS011;4656;48.090;11.498;2023-06-22T03:10:44;8.48;;;4.65;;
8353;SDS011;4656;48.090;11.498;2023-06-22T03:12:46;7.40;;;4.65;;
8353;SDS011;4656;48.090;11.498;2023-06-22T03:14:49;8.37;;;4.67;;
8353;SDS011;4656;48.090;11.498;2023-06-22T03:16:51;8.57;;;4.95;;
8353;SDS011;4656;48.090;11.498;2023-06-22T03:18:53;8.88;;;5.15;;
8353;SDS011;4656;48.090;11.498;2023-06-22T03:20:55;8.20;;;4.88;;
8353;SDS011;4656;48.090;11.498;2023-06-22T03:22:57;7.95;;;4.32;;
8353;SDS011;4656;48.090;11.498;2023-06-22T03:25:00;7.70;;;4.73;;
8353;SDS011;4656;48.090;11.498;2023-06-22T03:27:03;7.90;;;4.65;;
8353;SDS011;4656;48.090;11.498;2023-06-22T03:29:06;9.32;;;4.70;;
8353;SDS011;4656;48.090;11.498;2023-06-22T03:31:08;10.45;;;4.75;;
8353;SDS011;4656;48.090;11.498;2023-06-22T03:33:10;6.80;;;4.40;;
8353;SDS011;4656;48.090;11.498;2023-06-22T03:35:12;10.05;;;4.80;;
8353;SDS011;4656;48.090;11.498;2023-06-22T03:37:14;9.60;;;4.82;;
8353;SDS011;4656;48.090;11.498;2023-06-22T03:39:16;9.52;;;4.85;;
8353;SDS011;4656;48.090;11.498;2023-06-22T03:41:20;9.57;;;4.50;;
8353;SDS011;4656;48.090;11.498;2023-06-22T03:43:22;9.07;;;4.72;;
8353;SDS011;4656;48.090;11.498;2023-06-22T03:45:25;9.35;;;4.78;;
8353;SDS011;4656;48.090;11.498;2023-06-22T03:47:27;10.57;;;4.57;;
8353;SDS011;4656;48.090;11.498;2023-06-22T03:49:29;9.63;;;4.82;;
8353;SDS011;4656;48.090;11.498;2023-06-22T03:51:32;7.50;;;4.47;;
8353;SDS011;4656;48.090;11.498;2023-06-22T03:53:34;7.95;;;4.68;;
8353;SDS011;4656;48.090;11.498;2023-06-22T03:55:36;9.05;;;4.40;;
8353;SDS011;4656;48.090;11.498;2023-06-22T03:57:40;10.90;;;4.70;;
8353;SDS011;4656;48.090;11.498;2023-06-22T03:59:42;6.22;;;4.22;;
8353;SDS011;4656;48.090;11.498;2023-06-22T04:01:44;7.72;;;4.50;;
8353;SDS011;4656;48.090;11.498;2023-06-22T04:03:47;10.45;;;4.35;;
8353;SDS011;4656;48.090;11.498;2023-06-22T04:05:49;6.95;;;4.32;;
8353;SDS011;4656;48.090;11.498;2023-06-22T04:07:51;7.95;;;4.18;;
8353;SDS011;4656;48.090;11.498;2023-06-22T04:09:53;8.15;;;4.88;;
8353;SDS011;4656;48.090;11.498;2023-06-22T04:11:55;9.83;;;4.50;;
8353;SDS011;4656;48.090;11.498;2023-06-22T04:13:59;9.38;;;4.47;;
8353;SDS011;4656;48.090;11.498;2023-06-22T04:16:01;7.80;;;4.57;;
8353;SDS011;4656;48.090;11.498;2023-06-22T04:18:04;8.50;;;4.40;;
8353;SDS011;4656;48.090;11.498;2023-06-22T04:20:07;10.43;;;4.38;;
8353;SDS011;4656;48.090;11.498;2023-06-22T04:22:09;8.98;;;4.90;;
8353;SDS011;4656;48.090;11.498;2023-06-22T04:24:12;7.50;;;4.72;;
8353;SDS011;4656;48.090;11.498;2023-06-22T04:26:14;6.82;;;4.70;;
8353;SDS011;4656;48.090;11.498;2023-06-22T04:28:16;7.85;;;4.25;;
8353;SDS011;4656;48.090;11.498;2023-06-22T04:30:19;9.30;;;4.68;;
8353;SDS011;4656;48.090;11.498;2023-06-22T04:32:22;8.98;;;4.90;;
8353;SDS011;4656;48.090;11.498;2023-06-22T04:34:24;8.18;;;4.13;;
8353;SDS011;4656;48.090;11.498;2023-06-22T04:36:27;8.23;;;4.85;;
8353;SDS011;4656;48.090;11.498;2023-06-22T04:38:37;7.95;;;4.50;;
8353;SDS011;4656;48.090;11.498;2023-06-22T04:40:39;7.93;;;4.32;;
8353;SDS011;4656;48.090;11.498;2023-06-22T04:42:41;7.90;;;4.78;;
8353;SDS011;4656;48.090;11.498;2023-06-22T04:44:53;10.60;;;4.97;;
8353;SDS011;4656;48.090;11.498;2023-06-22T04:46:57;9.73;;;5.07;;
8353;SDS011;4656;48.090;11.498;2023-06-22T04:49:02;9.60;;;5.03;;
8353;SDS011;4656;48.090;11.498;2023-06-22T04:51:06;6.53;;;4.70;;
8353;SDS011;4656;48.090;11.498;2023-06-22T04:53:08;8.77;;;5.25;;
8353;SDS011;4656;48.090;11.498;2023-06-22T04:55:12;10.32;;;5.47;;
8353;SDS011;4656;48.090;11.498;2023-06-22T04:57:18;6.43;;;4.53;;
8353;SDS011;4656;48.090;11.498;2023-06-22T04:59:20;7.82;;;4.60;;
8353;SDS011;4656;48.090;11.498;2023-06-22T05:01:22;7.68;;;4.53;;
8353;SDS011;4656;48.090;11.498;2023-06-22T05:03:26;9.43;;;4.82;;
8353;SDS011;4656;48.090;11.498;2023-06-22T05:05:29;7.95;;;4.50;;
8353;SDS011;4656;48.090;11.498;2023-06-22T05:07:31;8.55;;;4.72;;
8353;SDS011;4656;48.090;11.498;2023-06-22T05:09:33;9.10;;;5.07;;
8353;SDS011;4656;48.090;11.498;2023-06-22T05:11:35;9.95;;;5.57;;
8353;SDS011;4656;48.090;11.498;2023-06-22T05:13:37;9.90;;;5.60;;
8353;SDS011;4656;48.090;11.498;2023-06-22T05:15:39;9.50;;;5.20;;
8353;SDS011;4656;48.090;11.498;2023-06-22T05:17:42;11.05;;;5.55;;
8353;SDS011;4656;48.090;11.498;2023-06-22T05:19:47;10.15;;;5.55;;
8353;SDS011;4656;48.090;11.498;2023-06-22T05:21:49;8.18;;;5.15;;
8353;SDS011;4656;48.090;11.498;2023-06-22T05:23:52;8.32;;;4.80;;
8353;SDS011;4656;48.090;11.498;2023-06-22T05:25:54;8.05;;;5.20;;
8353;SDS011;4656;48.090;11.498;2023-06-22T05:27:57;10.88;;;5.50;;
8353;SDS011;4656;48.090;11.498;2023-06-22T05:29:59;10.80;;;5.20;;
8353;SDS011;4656;48.090;11.498;2023-06-22T05:32:02;9.02;;;5.43;;
8353;SDS011;4656;48.090;11.498;2023-06-22T05:34:04;10.05;;;5.15;;
8353;SDS011;4656;48.090;11.498;2023-06-22T05:36:07;8.70;;;5.55;;
8353;SDS011;4656;48.090;11.498;2023-06-22T05:38:10;9.25;;;4.82;;
8353;SDS011;4656;48.090;11.498;2023-06-22T05:40:12;7.55;;;5.18;;
8353;SDS011;4656;48.090;11.498;2023-06-22T05:42:14;9.50;;;5.13;;
8353;SDS011;4656;48.090;11.498;2023-06-22T05:44:16;9.85;;;5.07;;
8353;SDS011;4656;48.090;11.498;2023-06-22T05:46:21;8.60;;;4.78;;
8353;SDS011;4656;48.090;11.498;2023-06-22T05:48:23;9.38;;;5.15;;
8353;SDS011;4656;48.090;11.498;2023-06-22T05:50:25;9.98;;;5.15;;
8353;SDS011;4656;48.090;11.498;2023-06-22T05:52:28;10.50;;;5.40;;
8353;SDS011;4656;48.090;11.498;2023-06-22T05:54:31;8.50;;;4.95;;
8353;SDS011;4656;48.090;11.498;2023-06-22T05:56:33;9.05;;;5.05;;
8353;SDS011;4656;48.090;11.498;2023-06-22T05:58:35;12.38;;;5.30;;
8353;SDS011;4656;48.090;11.498;2023-06-22T06:00:37;8.10;;;4.68;;
8353;SDS011;4656;48.090;11.498;2023-06-22T06:02:39;11.23;;;5.43;;
8353;SDS011;4656;48.090;11.498;2023-06-22T06:04:43;10.23;;;4.85;;
8353;SDS011;4656;48.090;11.498;2023-06-22T06:06:45;9.68;;;4.80;;
8353;SDS011;4656;48.090;11.498;2023-06-22T06:08:49;8.20;;;4.55;;
8353;SDS011;4656;48.090;11.498;2023-06-22T06:10:51;8.55;;;5.07;;
8353;SDS011;4656;48.090;11.498;2023-06-22T06:12:55;11.00;;;5.47;;
8353;SDS011;4656;48.090;11.498;2023-06-22T06:14:57;11.93;;;4.72;;
8353;SDS011;4656;48.090;11.498;2023-06-22T06:16:59;8.82;;;5.03;;
8353;SDS011;4656;48.090;11.498;2023-06-22T06:19:01;8.23;;;5.22;;
8353;SDS011;4656;48.090;11.498;2023-06-22T06:21:03;9.15;;;5.20;;
8353;SDS011;4656;48.090;11.498;2023-06-22T06:23:05;9.93;;;5.15;;
8353;SDS011;4656;48.090;11.498;2023-06-22T06:25:09;8.00;;;5.30;;
8353;SDS011;4656;48.090;11.498;2023-06-22T06:27:16;11.93;;;5.25;;
8353;SDS011;4656;48.090;11.498;2023-06-22T06:29:19;10.05;;;4.80;;
8353;SDS011;4656;48.090;11.498;2023-06-22T06:31:23;9.05;;;5.13;;
8353;SDS011;4656;48.090;11.498;2023-06-22T06:33:28;10.98;;;5.70;;
8353;SDS011;4656;48.090;11.498;2023-06-22T06:35:31;11.30;;;5.10;;
8353;SDS011;4656;48.090;11.498;2023-06-22T06:37:34;9.13;;;5.82;;
8353;SDS011;4656;48.090;11.498;2023-06-22T06:39:37;9.65;;;5.50;;
8353;SDS011;4656;48.090;11.498;2023-06-22T06:41:40;10.55;;;5.20;;
8353;SDS011;4656;48.090;11.498;2023-06-22T06:43:43;12.05;;;5.13;;
8353;SDS011;4656;48.090;11.498;2023-06-22T06:45:45;11.57;;;5.03;;
8353;SDS011;4656;48.090;11.498;2023-06-22T06:47:47;11.32;;;4.72;;
8353;SDS011;4656;48.090;11.498;2023-06-22T06:49:49;10.68;;;5.70;;
8353;SDS011;4656;48.090;11.498;2023-06-22T06:51:51;10.38;;;5.10;;
8353;SDS011;4656;48.090;11.498;2023-06-22T06:53:53;10.55;;;5.18;;
8353;SDS011;4656;48.090;11.498;2023-06-22T06:55:55;10.48;;;5.05;;
8353;SDS011;4656;48.090;11.498;2023-06-22T06:57:59;11.00;;;4.93;;
8353;SDS011;4656;48.090;11.498;2023-06-22T07:00:01;14.23;;;5.28;;
8353;SDS011;4656;48.090;11.498;2023-06-22T07:02:07;10.40;;;4.80;;
8353;SDS011;4656;48.090;11.498;2023-06-22T07:04:09;9.20;;;4.57;;
8353;SDS011;4656;48.090;11.498;2023-06-22T07:06:13;9.35;;;5.25;;
8353;SDS011;4656;48.090;11.498;2023-06-22T07:08:16;10.05;;;5.05;;
8353;SDS011;4656;48.090;11.498;2023-06-22T07:10:18;9.68;;;5.05;;
8353;SDS011;4656;48.090;11.498;2023-06-22T07:12:20;10.13;;;5.00;;
8353;SDS011;4656;48.090;11.498;2023-06-22T07:14:24;10.43;;;4.73;;
8353;SDS011;4656;48.090;11.498;2023-06-22T07:16:26;8.60;;;5.17;;
8353;SDS011;4656;48.090;11.498;2023-06-22T07:18:30;7.27;;;4.83;;
8353;SDS011;4656;48.090;11.498;2023-06-22T07:20:32;15.20;;;5.07;;
8353;SDS011;4656;48.090;11.498;2023-06-22T07:22:34;9.52;;;4.88;;
8353;SDS011;4656;48.090;11.498;2023-06-22T07:24:36;9.20;;;5.10;;
8353;SDS011;4656;48.090;11.498;2023-06-22T07:26:39;9.50;;;5.00;;
8353;SDS011;4656;48.090;11.498;2023-06-22T07:28:45;9.50;;;4.78;;
8353;SDS011;4656;48.090;11.498;2023-06-22T07:30:49;8.10;;;4.97;;
8353;SDS011;4656;48.090;11.498;2023-06-22T07:32:52;10.15;;;5.97;;
8353;SDS011;4656;48.090;11.498;2023-06-22T07:34:54;14.47;;;5.17;;
8353;SDS011;4656;48.090;11.498;2023-06-22T07:36:56;14.23;;;5.40;;
8353;SDS011;4656;48.090;11.498;2023-06-22T07:38:58;12.77;;;5.10;;
8353;SDS011;4656;48.090;11.498;2023-06-22T07:41:00;10.57;;;5.00;;
8353;SDS011;4656;48.090;11.498;2023-06-22T07:43:05;10.75;;;4.97;;
8353;SDS011;4656;48.090;11.498;2023-06-22T07:45:07;9.27;;;4.97;;
8353;SDS011;4656;48.090;11.498;2023-06-22T07:47:11;12.25;;;5.57;;
8353;SDS011;4656;48.090;11.498;2023-06-22T07:49:13;7.55;;;4.50;;
8353;SDS011;4656;48.090;11.498;2023-06-22T07:51:15;11.15;;;5.63;;
8353;SDS011;4656;48.090;11.498;2023-06-22T07:53:17;12.93;;;5.28;;
8353;SDS011;4656;48.090;11.498;2023-06-22T07:55:19;11.00;;;4.35;;
8353;SDS011;4656;48.090;11.498;2023-06-22T07:57:21;10.57;;;5.30;;
8353;SDS011;4656;48.090;11.498;2023-06-22T07:59:32;11.93;;;4.88;;
8353;SDS011;4656;48.090;11.498;2023-06-22T08:01:34;11.77;;;4.78;;
8353;SDS011;4656;48.090;11.498;2023-06-22T08:03:37;10.35;;;4.53;;
8353;SDS011;4656;48.090;11.498;2023-06-22T08:05:40;12.18;;;4.65;;
8353;SDS011;4656;48.090;11.498;2023-06-22T08:07:42;11.03;;;4.80;;
8353;SDS011;4656;48.090;11.498;2023-06-22T08:09:46;10.65;;;5.20;;
8353;SDS011;4656;48.090;11.498;2023-06-22T08:11:48;12.20;;;5.15;;
8353;SDS011;4656;48.090;11.498;2023-06-22T08:13:50;10.90;;;5.03;;
8353;SDS011;4656;48.090;11.498;2023-06-22T08:15:53;11.55;;;4.97;;
8353;SDS011;4656;48.090;11.498;2023-06-22T08:17:55;11.05;;;4.90;;
8353;SDS011;4656;48.090;11.498;2023-06-22T08:19:59;8.75;;;4.38;;
8353;SDS011;4656;48.090;11.498;2023-06-22T08:22:01;10.48;;;5.00;;
8353;SDS011;4656;48.090;11.498;2023-06-22T08:24:03;10.30;;;4.93;;
8353;SDS011;4656;48.090;11.498;2023-06-22T08:26:07;10.18;;;5.45;;
8353;SDS011;4656;48.090;11.498;2023-06-22T08:28:09;9.68;;;5.07;;
8353;SDS011;4656;48.090;11.498;2023-06-22T08:30:11;12.98;;;5.40;;
8353;SDS011;4656;48.090;11.498;2023-06-22T08:32:13;13.05;;;5.20;;
8353;SDS011;4656;48.090;11.498;2023-06-22T08:34:15;13.35;;;5.30;;
8353;SDS011;4656;48.090;11.498;2023-06-22T08:36:22;10.85;;;5.22;;
8353;SDS011;4656;48.090;11.498;2023-06-22T08:38:24;7.00;;;4.72;;
8353;SDS011;4656;48.090;11.498;2023-06-22T08:40:27;10.98;;;5.25;;
8353;SDS011;4656;48.090;11.498;2023-06-22T08:42:30;12.75;;;5.28;;
8353;SDS011;4656;48.090;11.498;2023-06-22T08:44:32;13.82;;;5.70;;
8353;SDS011;4656;48.090;11.498;2023-06-22T08:46:34;10.13;;;5.22;;
8353;SDS011;4656;48.090;11.498;2023-06-22T08:48:38;13.88;;;5.22;;
8353;SDS011;4656;48.090;11.498;2023-06-22T08:50:41;10.60;;;4.90;;
8353;SDS011;4656;48.090;11.498;2023-06-22T08:52:44;11.15;;;4.88;;
8353;SDS011;4656;48.090;11.498;2023-06-22T08:54:48;13.95;;;5.38;;
8353;SDS011;4656;48.090;11.498;2023-06-22T08:56:50;11.80;;;5.43;;
8353;SDS011;4656;48.090;11.498;2023-06-22T08:58:52;9.15;;;4.90;;
8353;SDS011;4656;48.090;11.498;2023-06-22T09:00:55;10.57;;;5.30;;
8353;SDS011;4656;48.090;11.498;2023-06-22T09:02:57;12.07;;;4.82;;
8353;SDS011;4656;48.090;11.498;2023-06-22T09:04:59;11.50;;;5.97;;
8353;SDS011;4656;48.090;11.498;2023-06-22T09:07:02;11.50;;;4.93;;
8353;SDS011;4656;48.090;11.498;2023-06-22T09:09:05;11.70;;;4.72;;
8353;SDS011;4656;48.090;11.498;2023-06-22T09:11:08;12.45;;;5.07;;
8353;SDS011;4656;48.090;11.498;2023-06-22T09:13:10;12.63;;;4.63;;
8353;SDS011;4656;48.090;11.498;2023-06-22T09:15:12;10.40;;;5.00;;
8353;SDS011;4656;48.090;11.498;2023-06-22T09:17:15;11.25;;;4.82;;
8353;SDS011;4656;48.090;11.498;2023-06-22T09:19:17;9.93;;;4.45;;
8353;SDS011;4656;48.090;11.498;2023-06-22T09:21:19;8.30;;;4.72;;
8353;SDS011;4656;48.090;11.498;2023-06-22T09:23:22;13.80;;;5.43;;
8353;SDS011;4656;48.090;11.498;2023-06-22T09:25:27;9.88;;;4.97;;
8353;SDS011;4656;48.090;11.498;2023-06-22T09:27:29;11.93;;;6.20;;
8353;SDS011;4656;48.090;11.498;2023-06-22T09:29:31;11.57;;;5.00;;
8353;SDS011;4656;48.090;11.498;2023-06-22T09:31:34;8.10;;;4.70;;
8353;SDS011;4656;48.090;11.498;2023-06-22T09:33:36;9.25;;;5.22;;
8353;SDS011;4656;48.090;11.498;2023-06-22T09:35:39;9.82;;;5.30;;
8353;SDS011;4656;48.090;11.498;2023-06-22T09:37:41;10.25;;;5.18;;
8353;SDS011;4656;48.090;11.498;2023-06-22T09:39:43;11.77;;;5.07;;
8353;SDS011;4656;48.090;11.498;2023-06-22T09:41:46;10.23;;;4.97;;
8353;SDS011;4656;48.090;11.498;2023-06-22T09:43:49;12.30;;;4.70;;
8353;SDS011;4656;48.090;11.498;2023-06-22T09:45:51;11.18;;;5.13;;
8353;SDS011;4656;48.090;11.498;2023-06-22T09:47:54;9.77;;;4.82;;
8353;SDS011;4656;48.090;11.498;2023-06-22T09:49:56;15.38;;;5.00;;
8353;SDS011;4656;48.090;11.498;2023-06-22T09:51:59;10.27;;;4.43;;
8353;SDS011;4656;48.090;11.498;2023-06-22T09:54:02;10.73;;;5.03;;
8353;SDS011;4656;48.090;11.498;2023-06-22T09:56:04;8.50;;;5.00;;
8353;SDS011;4656;48.090;11.498;2023-06-22T09:58:08;8.50;;;4.68;;
8353;SDS011;4656;48.090;11.498;2023-06-22T10:00:10;13.63;;;5.13;;
8353;SDS011;4656;48.090;11.498;2023-06-22T10:02:13;10.55;;;4.70;;
8353;SDS011;4656;48.090;11.498;2023-06-22T10:04:15;12.30;;;4.90;;
8353;SDS011;4656;48.090;11.498;2023-06-22T10:06:18;12.35;;;4.85;;
8353;SDS011;4656;48.090;11.498;2023-06-22T10:08:20;9.80;;;4.70;;
8353;SDS011;4656;48.090;11.498;2023-06-22T10:10:22;12.10;;;4.85;;
8353;SDS011;4656;48.090;11.498;2023-06-22T10:12:25;12.50;;;5.43;;
8353;SDS011;4656;48.090;11.498;2023-06-22T10:14:29;13.60;;;4.85;;
8353;SDS011;4656;48.090;11.498;2023-06-22T10:16:31;10.45;;;5.35;;
8353;SDS011;4656;48.090;11.498;2023-06-22T10:18:35;11.70;;;5.43;;
8353;SDS011;4656;48.090;11.498;2023-06-22T10:20:37;9.85;;;4.75;;
8353;SDS011;4656;48.090;11.498;2023-06-22T10:22:40;9.20;;;4.32;;
8353;SDS011;4656;48.090;11.498;2023-06-22T10:24:42;11.77;;;5.03;;
8353;SDS011;4656;48.090;11.498;2023-06-22T10:26:44;11.70;;;4.43;;
8353;SDS011;4656;48.090;11.498;2023-06-22T10:28:46;12.75;;;5.32;;
8353;SDS011;4656;48.090;11.498;2023-06-22T10:30:50;11.98;;;4.90;;
8353;SDS011;4656;48.090;11.498;2023-06-22T10:32:52;13.87;;;4.93;;
8353;SDS011;4656;48.090;11.498;2023-06-22T10:34:54;13.05;;;4.60;;
8353;SDS011;4656;48.090;11.498;2023-06-22T10:36:57;12.53;;;4.93;;
8353;SDS011;4656;48.090;11.498;2023-06-22T10:38:59;13.15;;;4.97;;
8353;SDS011;4656;48.090;11.498;2023-06-22T10:41:02;12.73;;;5.13;;
8353;SDS011;4656;48.090;11.498;2023-06-22T10:43:04;13.00;;;4.70;;
8353;SDS011;4656;48.090;11.498;2023-06-22T10:45:07;13.35;;;5.03;;
8353;SDS011;4656;48.090;11.498;2023-06-22T10:47:11;13.90;;;4.90;;
8353;SDS011;4656;48.090;11.498;2023-06-22T10:49:13;10.95;;;4.80;;
8353;SDS011;4656;48.090;11.498;2023-06-22T10:51:15;10.48;;;4.85;;
8353;SDS011;4656;48.090;11.498;2023-06-22T10:53:17;13.68;;;5.10;;
8353;SDS011;4656;48.090;11.498;2023-06-22T10:55:19;10.23;;;5.10;;
8353;SDS011;4656;48.090;11.498;2023-06-22T10:57:22;11.32;;;4.97;;
8353;SDS011;4656;48.090;11.498;2023-06-22T10:59:24;8.90;;;4.63;;
8353;SDS011;4656;48.090;11.498;2023-06-22T11:01:27;9.98;;;4.85;;
8353;SDS011;4656;48.090;11.498;2023-06-22T11:03:32;13.20;;;5.63;;
8353;SDS011;4656;48.090;11.498;2023-06-22T11:05:34;9.73;;;4.95;;
8353;SDS011;4656;48.090;11.498;2023-06-22T11:07:37;10.07;;;5.17;;
8353;SDS011;4656;48.090;11.498;2023-06-22T11:09:41;12.20;;;4.97;;
8353;SDS011;4656;48.090;11.498;2023-06-22T11:11:44;13.00;;;5.20;;
8353;SDS011;4656;48.090;11.498;2023-06-22T11:13:46;11.10;;;5.97;;
8353;SDS011;4656;48.090;11.498;2023-06-22T11:15:49;11.95;;;4.55;;
8353;SDS011;4656;48.090;11.498;2023-06-22T11:17:51;10.75;;;5.10;;
8353;SDS011;4656;48.090;11.498;2023-06-22T11:19:54;9.43;;;5.68;;
8353;SDS011;4656;48.090;11.498;2023-06-22T11:21:56;16.13;;;4.75;;
8353;SDS011;4656;48.090;11.498;2023-06-22T11:23:59;11.13;;;5.30;;
8353;SDS011;4656;48.090;11.498;2023-06-22T11:26:01;11.20;;;4.80;;
8353;SDS011;4656;48.090;11.498;2023-06-22T11:28:03;10.77;;;4.68;;
8353;SDS011;4656;48.090;11.498;2023-06-22T11:30:06;11.35;;;4.70;;
8353;SDS011;4656;48.090;11.498;2023-06-22T11:32:08;14.10;;;5.20;;
8353;SDS011;4656;48.090;11.498;2023-06-22T11:34:11;10.70;;;5.13;;
8353;SDS011;4656;48.090;11.498;2023-06-22T11:36:14;9.25;;;4.78;;
8353;SDS011;4656;48.090;11.498;2023-06-22T11:38:16;11.90;;;4.78;;
8353;SDS011;4656;48.090;11.498;2023-06-22T11:40:19;12.00;;;5.03;;
8353;SDS011;4656;48.090;11.498;2023-06-22T11:42:22;11.80;;;5.22;;
8353;SDS011;4656;48.090;11.498;2023-06-22T11:44:25;15.43;;;4.82;;
8353;SDS011;4656;48.090;11.498;2023-06-22T11:46:27;12.13;;;5.07;;
8353;SDS011;4656;48.090;11.498;2023-06-22T11:48:29;7.75;;;4.30;;
8353;SDS011;4656;48.090;11.498;2023-06-22T11:50:32;14.32;;;4.78;;
8353;SDS011;4656;48.090;11.498;2023-06-22T11:52:37;10.35;;;4.75;;
8353;SDS011;4656;48.090;11.498;2023-06-22T11:54:39;12.75;;;5.10;;
8353;SDS011;4656;48.090;11.498;2023-06-22T11:56:41;11.25;;;4.55;;
8353;SDS011;4656;48.090;11.498;2023-06-22T11:58:43;9.00;;;4.68;;
8353;SDS011;4656;48.090;11.498;2023-06-22T12:00:46;11.13;;;4.75;;
8353;SDS011;4656;48.090;11.498;2023-06-22T12:02:48;9.85;;;4.60;;
8353;SDS011;4656;48.090;11.498;2023-06-22T12:04:51;9.25;;;4.68;;
8353;SDS011;4656;48.090;11.498;2023-06-22T12:06:55;12.88;;;5.20;;
8353;SDS011;4656;48.090;11.498;2023-06-22T12:08:59;13.40;;;4.78;;
8353;SDS011;4656;48.090;11.498;2023-06-22T12:11:02;9.93;;;4.50;;
8353;SDS011;4656;48.090;11.498;2023-06-22T12:13:04;11.43;;;4.68;;
8353;SDS011;4656;48.090;11.498;2023-06-22T12:15:07;8.80;;;4.63;;
8353;SDS011;4656;48.090;11.498;2023-06-22T12:17:09;9.40;;;4.78;;
8353;SDS011;4656;48.090;11.498;2023-06-22T12:19:12;15.60;;;5.00;;
8353;SDS011;4656;48.090;11.498;2023-06-22T12:21:14;11.57;;;5.18;;
8353;SDS011;4656;48.090;11.498;2023-06-22T12:23:16;14.20;;;5.00;;
8353;SDS011;4656;48.090;11.498;2023-06-22T12:25:21;10.50;;;5.60;;
8353;SDS011;4656;48.090;11.498;2023-06-22T12:27:24;13.15;;;5.40;;